createdAt,value
2023-01-15T00:02:18.463Z,44.40
2023-01-15T00:04:46.326Z,44.30
2023-01-15T00:07:14.037Z,44.50
2023-01-15T00:09:41.849Z,44.50
2023-01-15T00:12:09.599Z,44.50
2023-01-15T00:14:37.339Z,44.50
2023-01-15T00:17:05.106Z,44.50
2023-01-15T00:19:32.936Z,44.50
2023-01-15T00:22:09.619Z,44.50
2023-01-15T00:25:06.503Z,44.40
2023-01-15T00:27:40.141Z,44.60
2023-01-15T00:30:08.069Z,44.60
2023-01-15T00:32:35.810Z,44.60
2023-01-15T00:35:03.608Z,44.60
2023-01-15T00:37:31.359Z,44.60
2023-01-15T00:39:59.137Z,44.60
2023-01-15T00:42:26.970Z,44.60
2023-01-15T00:44:55.695Z,44.70
2023-01-15T00:47:23.519Z,44.60
2023-01-15T00:49:51.731Z,44.70
2023-01-15T00:52:19.608Z,44.70
2023-01-15T00:54:48.331Z,44.70
2023-01-15T00:57:16.141Z,44.60
2023-01-15T00:59:43.878Z,44.60
2023-01-15T01:02:11.775Z,44.60
2023-01-15T01:04:39.556Z,44.60
2023-01-15T01:07:07.300Z,44.70
2023-01-15T01:09:35.174Z,44.60
2023-01-15T01:12:02.874Z,44.70
2023-01-15T01:14:30.655Z,44.70
2023-01-15T01:16:58.342Z,44.60
2023-01-15T01:19:26.129Z,44.70
2023-01-15T01:21:53.940Z,44.70
2023-01-15T01:24:21.661Z,44.70
2023-01-15T01:26:49.398Z,44.70
2023-01-15T01:29:17.199Z,44.80
2023-01-15T01:31:45.093Z,44.70
2023-01-15T01:34:12.874Z,44.70
2023-01-15T01:36:40.749Z,44.70
2023-01-15T01:39:08.617Z,44.80
2023-01-15T01:41:36.379Z,44.90
2023-01-15T01:44:04.117Z,44.80
2023-01-15T01:46:31.900Z,44.80
2023-01-15T01:48:59.632Z,44.80
2023-01-15T01:51:27.395Z,44.90
2023-01-15T01:53:55.183Z,44.90
2023-01-15T01:56:23.344Z,44.90
2023-01-15T01:58:51.067Z,44.90
2023-01-15T02:39:10.882Z,45.10
2023-01-15T02:41:38.613Z,45.10
2023-01-15T02:44:06.341Z,45.20
2023-01-15T02:46:34.130Z,45.10
2023-01-15T02:49:01.889Z,45.10
2023-01-15T02:51:29.601Z,45.20
2023-01-15T02:53:58.696Z,45.20
2023-01-15T02:56:26.441Z,45.10
2023-01-15T02:58:54.272Z,45.20
2023-01-15T03:01:22.175Z,45.10
2023-01-15T03:03:49.996Z,45.10
2023-01-15T03:06:17.749Z,45.10
2023-01-15T03:08:45.533Z,45.10
2023-01-15T03:11:13.282Z,45.10
2023-01-15T03:13:41.035Z,45.20
2023-01-15T03:16:26.217Z,45.20
2023-01-15T03:18:54.059Z,45.20
2023-01-15T03:21:21.832Z,45.20
2023-01-15T03:23:49.588Z,45.10
2023-01-15T03:26:17.407Z,45.20
2023-01-15T03:28:45.152Z,45.20
2023-01-15T03:31:13.018Z,45.10
2023-01-15T03:33:40.861Z,45.10
2023-01-15T03:36:08.600Z,45.10
2023-01-15T03:38:36.859Z,45.20
2023-01-15T03:41:04.600Z,45.10
2023-01-15T03:43:44.568Z,45.10
2023-01-15T03:46:12.331Z,45.20
2023-01-15T03:48:40.160Z,45.30
2023-01-15T03:51:07.952Z,45.30
2023-01-15T03:53:35.663Z,45.30
2023-01-15T03:56:03.421Z,45.30
2023-01-15T03:58:31.182Z,45.30
2023-01-15T04:00:59.877Z,45.30
2023-01-15T04:03:27.752Z,45.30
2023-01-15T04:05:55.493Z,45.30
2023-01-15T04:08:23.257Z,45.30
2023-01-15T04:10:50.992Z,45.30
2023-01-15T04:13:18.886Z,45.30
2023-01-15T04:15:46.814Z,45.20
2023-01-15T04:18:14.591Z,45.40
2023-01-15T04:20:42.324Z,45.30
2023-01-15T04:23:10.064Z,45.30
2023-01-15T04:25:38.094Z,45.30
2023-01-15T04:28:06.029Z,45.30
2023-01-15T04:30:33.826Z,45.20
2023-01-15T04:33:01.596Z,45.30
2023-01-15T04:35:29.339Z,45.30
2023-01-15T04:37:57.096Z,45.30
2023-01-15T04:40:42.487Z,45.30
2023-01-15T04:43:27.612Z,45.30
2023-01-15T04:45:55.402Z,45.20
2023-01-15T04:48:23.155Z,45.10
2023-01-15T04:50:51.041Z,45.30
2023-01-15T04:53:18.799Z,45.30
2023-01-15T04:55:46.548Z,45.10
2023-01-15T04:58:14.290Z,45.20
2023-01-15T05:00:42.031Z,45.30
2023-01-15T05:03:09.777Z,44.90
2023-01-15T05:05:37.939Z,45.00
2023-01-15T05:08:05.647Z,45.10
2023-01-15T05:10:33.950Z,45.00
2023-01-15T05:13:02.131Z,45.10
2023-01-15T05:15:30.028Z,44.90
2023-01-15T05:17:57.786Z,44.90
2023-01-15T05:20:25.834Z,44.90
2023-01-15T05:22:53.541Z,45.20
2023-01-15T05:25:21.240Z,45.20
2023-01-15T05:27:48.922Z,45.20
2023-01-15T05:30:16.694Z,45.90
2023-01-15T05:32:44.909Z,45.30
2023-01-15T05:35:12.697Z,45.30
2023-01-15T05:37:40.422Z,45.20
2023-01-15T05:40:08.209Z,45.40
2023-01-15T05:42:35.962Z,45.40
2023-01-15T05:45:03.813Z,45.40
2023-01-15T05:47:31.569Z,45.40
2023-01-15T05:49:59.334Z,45.40
2023-01-15T05:52:27.082Z,45.40
2023-01-15T05:54:54.830Z,45.30
2023-01-15T05:57:22.597Z,45.00
2023-01-15T05:59:50.586Z,44.70
2023-01-15T06:02:18.391Z,44.30
2023-01-15T06:04:46.273Z,44.20
2023-01-15T06:07:14.038Z,43.90
2023-01-15T06:09:41.840Z,43.80
2023-01-15T06:12:09.764Z,43.50
2023-01-15T06:14:37.553Z,43.60
2023-01-15T06:17:05.274Z,43.50
2023-01-15T06:19:33.441Z,43.90
2023-01-15T06:22:01.164Z,42.70
2023-01-15T06:24:29.285Z,36.90
2023-01-15T06:26:56.986Z,30.30
2023-01-15T06:29:24.866Z,26.70
2023-01-15T06:31:52.591Z,24.20
2023-01-15T06:34:20.516Z,22.70
2023-01-15T06:36:48.324Z,21.60
2023-01-15T06:39:16.519Z,20.80
2023-01-15T06:42:01.602Z,20.30
2023-01-15T06:44:46.702Z,19.90
2023-01-15T06:47:24.625Z,19.60
2023-01-15T06:49:52.705Z,19.60
2023-01-15T06:52:20.448Z,19.80
2023-01-15T06:54:48.167Z,20.10
2023-01-15T06:57:15.901Z,20.60
2023-01-15T06:59:43.631Z,21.10
2023-01-15T07:02:11.532Z,21.80
2023-01-15T07:04:39.288Z,22.60
2023-01-15T07:07:19.097Z,23.30
2023-01-15T07:09:46.863Z,24.10
2023-01-15T07:12:14.724Z,24.90
2023-01-15T07:14:42.484Z,25.70
2023-01-15T07:17:10.558Z,26.30
2023-01-15T07:19:38.340Z,27.50
2023-01-15T07:22:06.188Z,27.60
2023-01-15T07:24:34.001Z,28.40
2023-01-15T07:27:01.785Z,28.90
2023-01-15T07:29:30.873Z,29.50
2023-01-15T07:31:59.466Z,30.00
2023-01-15T07:34:27.299Z,30.60
2023-01-15T07:36:55.034Z,31.20
2023-01-15T07:39:22.824Z,31.90
2023-01-15T07:42:07.937Z,32.50
2023-01-15T07:44:53.388Z,33.20
2023-01-15T07:47:38.483Z,33.80
2023-01-15T07:50:06.272Z,34.20
2023-01-15T07:52:34.009Z,35.00
2023-01-15T07:55:02.138Z,35.30
2023-01-15T07:57:29.913Z,35.70
2023-01-15T07:59:57.646Z,36.20
2023-01-15T08:02:25.657Z,36.50
2023-01-15T08:04:53.465Z,36.90
2023-01-15T08:07:21.216Z,37.10
2023-01-15T08:09:48.938Z,37.40
2023-01-15T08:12:34.401Z,37.70
2023-01-15T08:15:14.157Z,37.70
2023-01-15T08:17:41.915Z,37.90
2023-01-15T08:20:09.756Z,38.20
2023-01-15T08:22:38.598Z,38.60
2023-01-15T08:25:06.345Z,39.10
2023-01-15T08:27:34.299Z,36.90
2023-01-15T08:30:02.229Z,33.10
2023-01-15T08:32:30.026Z,29.10
2023-01-15T08:34:57.871Z,26.50
2023-01-15T08:37:25.582Z,24.80
2023-01-15T08:39:53.676Z,23.60
2023-01-15T08:42:21.401Z,22.80
2023-01-15T08:44:49.186Z,22.40
2023-01-15T08:47:16.947Z,22.40
2023-01-15T08:49:44.712Z,22.70
2023-01-15T08:52:15.178Z,23.00
2023-01-15T08:54:43.423Z,23.60
2023-01-15T08:57:12.611Z,24.20
2023-01-15T08:59:43.060Z,24.90
2023-01-15T09:02:10.896Z,25.60
2023-01-15T09:04:38.700Z,26.30
2023-01-15T09:07:06.505Z,26.90
2023-01-15T09:09:36.995Z,27.50
2023-01-15T09:12:04.725Z,28.20
2023-01-15T09:14:58.127Z,28.70
2023-01-15T09:17:20.263Z,29.30
2023-01-15T09:19:47.964Z,30.00
2023-01-15T09:22:15.882Z,30.60
2023-01-15T09:24:43.627Z,31.10
2023-01-15T09:27:13.440Z,31.70
2023-01-15T09:29:41.164Z,32.30
2023-01-15T09:32:10.473Z,32.90
2023-01-15T09:34:38.232Z,33.40
2023-01-15T09:37:08.249Z,34.00
2023-01-15T09:39:38.126Z,34.50
2023-01-15T09:42:09.385Z,35.10
2023-01-15T09:44:37.293Z,35.30
2023-01-15T09:47:08.071Z,35.70
2023-01-15T09:49:36.213Z,36.30
2023-01-15T09:52:06.375Z,36.70
2023-01-15T09:54:34.149Z,36.90
2023-01-15T09:57:02.054Z,37.30
2023-01-15T09:59:34.158Z,37.60
2023-01-15T10:02:02.567Z,37.90
2023-01-15T10:04:30.367Z,38.20
2023-01-15T10:06:58.723Z,38.30
2023-01-15T10:09:26.900Z,38.70
2023-01-15T10:12:12.325Z,38.80
2023-01-15T10:14:40.433Z,38.80
2023-01-15T10:17:08.147Z,39.10
2023-01-15T10:19:44.313Z,39.40
2023-01-15T10:22:12.443Z,39.50
2023-01-15T10:24:40.212Z,39.50
2023-01-15T10:27:07.992Z,39.90
2023-01-15T10:29:35.705Z,40.10
2023-01-15T10:32:03.441Z,40.20
2023-01-15T10:34:33.227Z,40.30
2023-01-15T10:37:00.920Z,40.60
2023-01-15T10:39:28.764Z,40.60
2023-01-15T10:41:56.543Z,40.80
2023-01-15T10:44:24.318Z,41.00
2023-01-15T10:46:54.395Z,40.90
2023-01-15T10:49:22.631Z,42.00
2023-01-15T10:51:52.695Z,41.40
2023-01-15T10:54:20.420Z,41.60
2023-01-15T10:56:48.152Z,41.70
2023-01-15T10:59:15.947Z,41.60
2023-01-15T11:01:43.876Z,41.90
2023-01-15T11:04:13.345Z,42.00
2023-01-15T11:06:41.104Z,42.00
2023-01-15T11:09:12.400Z,42.10
2023-01-15T11:12:15.717Z,42.30
2023-01-15T11:15:00.716Z,42.30
2023-01-15T11:17:45.785Z,42.40
2023-01-15T11:20:13.564Z,42.60
2023-01-15T11:22:42.698Z,42.50
2023-01-15T11:25:11.456Z,42.60
2023-01-15T11:27:39.245Z,42.60
2023-01-15T11:30:06.951Z,42.70
2023-01-15T11:32:34.740Z,42.60
2023-01-15T11:35:02.485Z,42.80
2023-01-15T11:37:30.315Z,42.80
2023-01-15T11:40:03.060Z,42.60
2023-01-15T11:42:48.468Z,42.90
2023-01-15T11:45:30.042Z,42.90
2023-01-15T11:48:15.184Z,43.00
2023-01-15T11:50:45.702Z,43.10
2023-01-15T11:53:14.853Z,43.10
2023-01-15T11:55:42.551Z,43.20
2023-01-15T11:58:10.401Z,43.00
2023-01-15T12:00:38.156Z,43.10
2023-01-15T12:03:05.914Z,43.20
2023-01-15T12:05:33.700Z,43.10
2023-01-15T12:08:02.315Z,43.20
2023-01-15T12:10:49.959Z,43.10
2023-01-15T12:13:17.784Z,43.40
2023-01-15T12:15:45.567Z,43.20
2023-01-15T12:18:13.551Z,43.20
2023-01-15T12:20:43.996Z,43.10
2023-01-15T12:23:11.707Z,43.30
2023-01-15T12:25:39.570Z,43.20
2023-01-15T12:28:08.864Z,43.20
2023-01-15T12:30:37.800Z,43.30
2023-01-15T12:33:05.772Z,43.20
2023-01-15T12:35:33.548Z,43.50
2023-01-15T12:38:01.287Z,43.40
2023-01-15T12:40:29.015Z,43.40
2023-01-15T12:43:14.462Z,43.50
2023-01-15T12:45:42.477Z,43.40
2023-01-15T12:48:10.194Z,44.60
2023-01-15T12:50:37.960Z,40.50
2023-01-15T12:53:05.709Z,33.70
2023-01-15T12:55:33.749Z,28.70
2023-01-15T12:58:01.501Z,24.90
2023-01-15T13:00:29.253Z,22.70
2023-01-15T13:02:57.005Z,21.30
2023-01-15T13:05:24.759Z,20.40
2023-01-15T13:07:52.521Z,19.80
2023-01-15T13:10:20.218Z,19.40
2023-01-15T13:12:47.950Z,19.10
2023-01-15T13:15:15.685Z,18.90
2023-01-15T13:17:44.646Z,18.90
2023-01-15T13:20:12.391Z,19.10
2023-01-15T13:22:40.157Z,19.40
2023-01-15T13:25:07.965Z,19.80
2023-01-15T13:27:35.692Z,20.30
2023-01-15T13:30:03.711Z,20.90
2023-01-15T13:32:31.454Z,21.70
2023-01-15T13:34:59.221Z,22.50
2023-01-15T13:37:27.026Z,23.30
2023-01-15T13:39:54.774Z,24.00
2023-01-15T13:42:39.213Z,24.80
2023-01-15T13:45:07.014Z,25.50
2023-01-15T13:47:34.863Z,26.30
2023-01-15T13:50:03.584Z,26.90
2023-01-15T13:52:31.353Z,27.60
2023-01-15T13:54:59.572Z,28.20
2023-01-15T13:57:27.321Z,28.90
2023-01-15T13:59:55.037Z,29.40
2023-01-15T14:02:22.875Z,30.00
2023-01-15T14:04:50.623Z,30.40
2023-01-15T14:07:18.381Z,31.00
2023-01-15T14:09:46.124Z,31.70
2023-01-15T14:12:13.993Z,32.30
2023-01-15T14:14:41.733Z,31.10
2023-01-15T14:17:09.474Z,32.10
2023-01-15T14:19:37.227Z,33.10
2023-01-15T14:22:05.163Z,33.90
2023-01-15T14:24:32.912Z,34.50
2023-01-15T14:27:00.716Z,35.00
2023-01-15T14:29:30.551Z,35.60
2023-01-15T14:31:58.317Z,35.70
2023-01-15T14:34:27.141Z,36.20
2023-01-15T14:36:56.345Z,36.60
2023-01-15T14:39:24.094Z,36.90
2023-01-15T14:42:05.730Z,37.20
2023-01-15T14:44:33.599Z,36.50
2023-01-15T14:47:01.322Z,34.90
2023-01-15T14:49:29.294Z,32.90
2023-01-15T14:51:57.192Z,30.80
2023-01-15T14:54:25.107Z,29.20
2023-01-15T14:56:52.817Z,27.70
2023-01-15T14:59:20.525Z,26.90
2023-01-15T15:01:48.772Z,26.40
2023-01-15T15:04:16.552Z,26.40
2023-01-15T15:06:44.352Z,26.60
2023-01-15T15:09:13.656Z,26.90
2023-01-15T15:11:59.051Z,27.40
2023-01-15T15:14:26.843Z,27.90
2023-01-15T15:16:54.871Z,28.40
2023-01-15T15:19:25.223Z,29.00
2023-01-15T15:21:52.992Z,29.60
2023-01-15T15:24:20.740Z,30.00
2023-01-15T15:26:48.470Z,30.70
2023-01-15T15:29:16.225Z,31.30
2023-01-15T15:31:43.979Z,31.90
2023-01-15T15:34:11.687Z,32.50
2023-01-15T15:36:39.807Z,33.20
2023-01-15T15:39:07.554Z,33.70
2023-01-15T15:41:52.909Z,34.20
2023-01-15T15:44:38.056Z,34.70
2023-01-15T15:47:23.158Z,35.20
2023-01-15T15:49:50.956Z,35.60
2023-01-15T15:52:18.723Z,36.30
2023-01-15T15:54:46.570Z,36.90
2023-01-15T15:57:14.318Z,37.20
2023-01-15T15:59:42.126Z,37.30
2023-01-15T16:02:10.063Z,37.20
2023-01-15T16:04:37.888Z,37.30
2023-01-15T16:07:05.596Z,37.10
2023-01-15T16:09:33.416Z,37.10
2023-01-15T16:12:07.347Z,37.30
2023-01-15T16:14:35.229Z,37.30
2023-01-15T16:17:03.146Z,37.50
2023-01-15T16:19:31.035Z,37.70
2023-01-15T16:21:58.930Z,38.00
2023-01-15T16:24:26.762Z,38.20
2023-01-15T16:26:54.535Z,38.40
2023-01-15T16:29:23.333Z,38.40
2023-01-15T16:31:51.074Z,38.60
2023-01-15T16:34:18.930Z,38.70
2023-01-15T16:36:47.156Z,38.90
2023-01-15T16:39:14.935Z,39.00
2023-01-15T16:41:43.341Z,39.30
2023-01-15T16:44:11.132Z,39.40
2023-01-15T16:46:39.022Z,39.50
2023-01-15T16:49:07.393Z,40.00
2023-01-15T16:51:35.240Z,40.20
2023-01-15T16:54:03.677Z,38.20
2023-01-15T16:56:31.424Z,34.90
2023-01-15T16:58:59.172Z,31.60
2023-01-15T17:01:27.006Z,29.00
2023-01-15T17:03:54.787Z,27.10
2023-01-15T17:06:22.542Z,25.60
2023-01-15T17:08:50.245Z,24.60
2023-01-15T17:11:17.982Z,24.00
2023-01-15T17:13:45.849Z,23.90
2023-01-15T17:16:13.681Z,24.00
2023-01-15T17:18:41.667Z,24.20
2023-01-15T17:21:09.502Z,24.70
2023-01-15T17:23:37.329Z,25.30
2023-01-15T17:26:05.048Z,25.80
2023-01-15T17:28:32.791Z,26.40
2023-01-15T17:31:00.571Z,27.00
2023-01-15T17:33:28.394Z,27.60
2023-01-15T17:35:58.392Z,28.30
2023-01-15T17:38:26.094Z,28.80
2023-01-15T17:40:57.604Z,29.50
2023-01-15T17:43:26.462Z,30.00
2023-01-15T17:45:54.237Z,30.50
2023-01-15T17:48:21.964Z,31.20
2023-01-15T17:50:49.734Z,31.70
2023-01-15T17:53:17.977Z,32.40
2023-01-15T17:56:03.464Z,32.90
2023-01-15T17:58:48.626Z,33.40
2023-01-15T18:01:34.055Z,34.00
2023-01-15T18:04:19.389Z,34.50
2023-01-15T18:06:47.185Z,35.00
2023-01-15T18:09:14.918Z,35.50
2023-01-15T18:11:42.858Z,35.90
2023-01-15T18:14:10.610Z,36.30
2023-01-15T18:16:39.102Z,36.60
2023-01-15T18:19:06.843Z,37.00
2023-01-15T18:21:34.589Z,37.10
2023-01-15T18:24:02.665Z,37.60
2023-01-15T18:26:30.390Z,37.90
2023-01-15T18:28:58.121Z,38.10
2023-01-15T18:31:25.956Z,38.30
2023-01-15T18:33:53.690Z,39.20
2023-01-15T18:36:21.589Z,38.80
2023-01-15T18:38:49.357Z,38.80
2023-01-15T18:41:49.731Z,39.00
2023-01-15T18:44:35.040Z,39.20
2023-01-15T18:47:02.862Z,39.40
2023-01-15T18:49:30.618Z,39.50
2023-01-15T18:52:16.049Z,39.70
2023-01-15T18:54:43.831Z,39.90
2023-01-15T18:57:11.701Z,40.00
2023-01-15T18:59:39.494Z,40.10
2023-01-15T19:02:09.776Z,40.60
2023-01-15T19:04:38.308Z,39.10
2023-01-15T19:07:06.110Z,36.60
2023-01-15T19:09:34.198Z,33.00
2023-01-15T19:12:03.992Z,29.40
2023-01-15T19:14:49.379Z,27.00
2023-01-15T19:17:34.535Z,25.50
2023-01-15T19:20:02.281Z,24.40
2023-01-15T19:22:47.630Z,23.90
2023-01-15T19:25:15.357Z,23.90
2023-01-15T19:27:43.217Z,24.00
2023-01-15T19:30:10.943Z,24.40
2023-01-15T19:32:38.660Z,24.70
2023-01-15T19:35:06.417Z,25.20
2023-01-15T19:37:37.221Z,25.70
2023-01-15T19:40:05.206Z,26.30
2023-01-15T19:42:50.596Z,26.90
2023-01-15T19:45:36.080Z,27.50
2023-01-15T19:48:21.087Z,28.20
2023-01-15T19:50:48.827Z,28.70
2023-01-15T19:53:16.685Z,29.80
2023-01-15T19:55:44.573Z,29.90
2023-01-15T19:58:12.294Z,30.50
2023-01-15T20:00:40.229Z,31.10
2023-01-15T20:03:09.911Z,31.80
2023-01-15T20:05:37.751Z,32.20
2023-01-15T20:08:05.675Z,32.80
2023-01-15T20:10:34.396Z,33.30
2023-01-15T20:13:19.546Z,33.80
2023-01-15T20:15:47.288Z,34.30
2023-01-15T20:18:15.177Z,34.80
2023-01-15T20:20:42.928Z,35.20
2023-01-15T20:23:10.667Z,35.60
2023-01-15T20:25:42.705Z,36.20
2023-01-15T20:28:10.506Z,36.50
2023-01-15T20:30:38.395Z,36.80
2023-01-15T20:33:06.120Z,37.30
2023-01-15T20:35:33.944Z,37.50
2023-01-15T20:38:01.720Z,37.80
2023-01-15T20:40:32.564Z,38.20
2023-01-15T20:43:17.849Z,38.40
2023-01-15T20:45:46.041Z,38.40
2023-01-15T20:48:31.105Z,38.70
2023-01-15T20:51:01.741Z,38.90
2023-01-15T20:53:29.743Z,39.10
2023-01-15T20:55:57.891Z,39.20
2023-01-15T20:58:25.871Z,39.40
2023-01-15T21:00:53.820Z,39.50
2023-01-15T21:03:21.593Z,39.70
2023-01-15T21:05:49.387Z,39.80
2023-01-15T21:08:17.091Z,40.00
2023-01-15T21:10:44.856Z,40.10
2023-01-15T21:13:13.036Z,40.30
2023-01-15T21:15:42.390Z,40.20
2023-01-15T21:18:11.727Z,40.60
2023-01-15T21:20:39.473Z,40.70
2023-01-15T21:23:07.347Z,41.50
2023-01-15T21:25:35.075Z,41.00
2023-01-15T21:28:02.877Z,41.70
2023-01-15T21:30:30.770Z,41.40
2023-01-15T21:32:58.475Z,41.40
2023-01-15T21:35:26.185Z,41.60
2023-01-15T21:37:53.923Z,41.70
2023-01-15T21:40:21.703Z,41.70
2023-01-15T21:43:07.308Z,41.70
2023-01-15T21:45:35.084Z,41.90
2023-01-15T21:48:02.971Z,41.90
2023-01-15T21:50:30.850Z,42.00
2023-01-15T21:52:58.572Z,42.10
2023-01-15T21:55:26.375Z,42.20
2023-01-15T21:57:54.126Z,42.20
2023-01-15T22:00:21.972Z,42.40
2023-01-15T22:02:50.201Z,42.40
2023-01-15T22:05:17.989Z,42.30
2023-01-15T22:07:45.746Z,42.50
2023-01-15T22:10:13.476Z,42.60
2023-01-15T22:12:43.178Z,42.60
2023-01-15T22:15:10.979Z,42.60
2023-01-15T22:17:38.768Z,42.60
2023-01-15T22:20:07.325Z,42.60
2023-01-15T22:22:36.792Z,42.60
2023-01-15T22:25:07.599Z,42.60
2023-01-15T22:27:40.687Z,42.60
2023-01-15T22:30:08.475Z,42.70
2023-01-15T22:32:36.275Z,42.60
2023-01-15T22:35:04.194Z,42.60
2023-01-15T22:37:31.970Z,42.50
2023-01-15T22:39:59.832Z,42.40
2023-01-15T22:42:28.510Z,42.40
2023-01-15T22:44:57.225Z,42.90
2023-01-15T22:47:24.962Z,42.30
2023-01-15T22:49:52.945Z,42.40
2023-01-15T22:52:21.266Z,42.40
2023-01-15T22:54:49.002Z,42.50
2023-01-15T22:57:17.301Z,42.70
2023-01-15T22:59:45.341Z,42.70
2023-01-15T23:02:13.277Z,42.70
2023-01-15T23:04:41.085Z,42.80
2023-01-15T23:07:08.858Z,42.90
2023-01-15T23:09:36.600Z,42.90
2023-01-15T23:12:04.349Z,42.90
2023-01-15T23:14:32.128Z,42.90
2023-01-15T23:17:00.014Z,42.80
2023-01-15T23:19:28.276Z,42.80
2023-01-15T23:21:56.353Z,43.00
2023-01-15T23:24:24.143Z,43.00
2023-01-15T23:26:52.113Z,42.90
2023-01-15T23:29:19.995Z,42.90
2023-01-15T23:31:47.908Z,43.00
2023-01-15T23:34:15.665Z,43.00
2023-01-15T23:36:43.418Z,43.00
2023-01-15T23:39:11.107Z,43.10
2023-01-15T23:41:56.161Z,42.90
2023-01-15T23:44:41.344Z,43.20
2023-01-15T23:47:09.097Z,43.10
2023-01-15T23:49:36.815Z,43.10
2023-01-15T23:52:04.610Z,43.10
2023-01-15T23:54:32.339Z,43.10
2023-01-15T23:57:00.227Z,43.00
2023-01-15T23:59:27.927Z,43.10
